sensor_id;sensor_type;location;lat;lon;timestamp;P1;durP1;ratioP1;P2;durP2;ratioP2
75698;SDS011;64313;51.018;13.742;2022-10-24T00:01:47;12.23;;;7.80;;
75698;SDS011;64313;51.018;13.742;2022-10-24T00:04:29;13.02;;;7.40;;
75698;SDS011;64313;51.018;13.742;2022-10-24T00:07:23;14.75;;;7.70;;
75698;SDS011;64313;51.018;13.742;2022-10-24T00:12:38;12.27;;;7.25;;
75698;SDS011;64313;51.018;13.742;2022-10-24T00:21:25;11.38;;;7.00;;
75698;SDS011;64313;51.018;13.742;2022-10-24T00:24:50;11.65;;;8.00;;
75698;SDS011;64313;51.018;13.742;2022-10-24T00:28:28;12.50;;;8.15;;
75698;SDS011;64313;51.018;13.742;2022-10-24T00:30:42;14.50;;;8.20;;
75698;SDS011;64313;51.018;13.742;2022-10-24T00:37:03;14.68;;;7.85;;
75698;SDS011;64313;51.018;13.742;2022-10-24T00:39:41;13.13;;;8.38;;
75698;SDS011;64313;51.018;13.742;2022-10-24T00:42:27;12.70;;;7.30;;
75698;SDS011;64313;51.018;13.742;2022-10-24T00:48:36;13.98;;;7.90;;
75698;SDS011;64313;51.018;13.742;2022-10-24T01:03:18;13.52;;;7.65;;
75698;SDS011;64313;51.018;13.742;2022-10-24T01:06:22;13.82;;;7.50;;
75698;SDS011;64313;51.018;13.742;2022-10-24T01:23:02;11.38;;;6.70;;
75698;SDS011;64313;51.018;13.742;2022-10-24T01:31:19;11.48;;;6.80;;
75698;SDS011;64313;51.018;13.742;2022-10-24T01:34:58;11.98;;;7.40;;
75698;SDS011;64313;51.018;13.742;2022-10-24T01:37:08;13.55;;;7.07;;
75698;SDS011;64313;51.018;13.742;2022-10-24T01:39:52;12.52;;;6.97;;
75698;SDS011;64313;51.018;13.742;2022-10-24T01:42:26;10.68;;;6.85;;
75698;SDS011;64313;51.018;13.742;2022-10-24T01:44:56;12.10;;;6.43;;
75698;SDS011;64313;51.018;13.742;2022-10-24T01:47:36;11.77;;;6.95;;
75698;SDS011;64313;51.018;13.742;2022-10-24T01:50:18;12.13;;;6.57;;
75698;SDS011;64313;51.018;13.742;2022-10-24T01:52:47;10.45;;;6.78;;
75698;SDS011;64313;51.018;13.742;2022-10-24T01:55:14;11.70;;;6.43;;
75698;SDS011;64313;51.018;13.742;2022-10-24T01:57:47;11.63;;;7.10;;
75698;SDS011;64313;51.018;13.742;2022-10-24T02:00:17;10.32;;;6.85;;
75698;SDS011;64313;51.018;13.742;2022-10-24T02:02:56;13.85;;;7.15;;
75698;SDS011;64313;51.018;13.742;2022-10-24T02:05:28;10.13;;;5.90;;
75698;SDS011;64313;51.018;13.742;2022-10-24T02:08:02;14.75;;;8.65;;
75698;SDS011;64313;51.018;13.742;2022-10-24T02:10:33;13.02;;;8.13;;
75698;SDS011;64313;51.018;13.742;2022-10-24T02:13:08;12.80;;;7.93;;
75698;SDS011;64313;51.018;13.742;2022-10-24T02:15:44;14.40;;;8.02;;
75698;SDS011;64313;51.018;13.742;2022-10-24T02:18:13;13.05;;;7.80;;
75698;SDS011;64313;51.018;13.742;2022-10-24T02:20:53;13.45;;;8.65;;
75698;SDS011;64313;51.018;13.742;2022-10-24T02:23:24;13.40;;;7.78;;
75698;SDS011;64313;51.018;13.742;2022-10-24T02:25:56;12.30;;;7.20;;
75698;SDS011;64313;51.018;13.742;2022-10-24T02:28:24;14.32;;;8.27;;
75698;SDS011;64313;51.018;13.742;2022-10-24T02:30:59;11.93;;;7.85;;
75698;SDS011;64313;51.018;13.742;2022-10-24T02:33:28;12.98;;;7.80;;
75698;SDS011;64313;51.018;13.742;2022-10-24T02:35:55;10.90;;;7.05;;
75698;SDS011;64313;51.018;13.742;2022-10-24T02:38:23;13.98;;;7.38;;
75698;SDS011;64313;51.018;13.742;2022-10-24T02:40:57;12.07;;;8.07;;
75698;SDS011;64313;51.018;13.742;2022-10-24T02:43:23;11.60;;;6.68;;
75698;SDS011;64313;51.018;13.742;2022-10-24T02:45:50;13.57;;;7.40;;
75698;SDS011;64313;51.018;13.742;2022-10-24T02:48:19;12.68;;;7.75;;
75698;SDS011;64313;51.018;13.742;2022-10-24T02:50:50;13.70;;;7.28;;
75698;SDS011;64313;51.018;13.742;2022-10-24T02:53:18;15.60;;;7.38;;
75698;SDS011;64313;51.018;13.742;2022-10-24T02:55:44;12.90;;;7.53;;
75698;SDS011;64313;51.018;13.742;2022-10-24T02:58:10;12.93;;;7.88;;
75698;SDS011;64313;51.018;13.742;2022-10-24T03:00:35;11.38;;;7.15;;
75698;SDS011;64313;51.018;13.742;2022-10-24T03:03:01;12.82;;;7.78;;
75698;SDS011;64313;51.018;13.742;2022-10-24T03:05:26;13.75;;;7.93;;
75698;SDS011;64313;51.018;13.742;2022-10-24T03:07:52;12.95;;;7.57;;
75698;SDS011;64313;51.018;13.742;2022-10-24T03:10:17;11.90;;;7.03;;
75698;SDS011;64313;51.018;13.742;2022-10-24T03:12:43;15.90;;;8.10;;
75698;SDS011;64313;51.018;13.742;2022-10-24T03:15:08;13.40;;;7.57;;
75698;SDS011;64313;51.018;13.742;2022-10-24T03:17:34;11.80;;;7.22;;
75698;SDS011;64313;51.018;13.742;2022-10-24T03:20:00;11.48;;;6.85;;
75698;SDS011;64313;51.018;13.742;2022-10-24T03:22:25;15.23;;;7.45;;
75698;SDS011;64313;51.018;13.742;2022-10-24T03:24:50;14.43;;;7.97;;
75698;SDS011;64313;51.018;13.742;2022-10-24T03:27:16;13.25;;;7.18;;
75698;SDS011;64313;51.018;13.742;2022-10-24T03:29:41;13.57;;;7.45;;
75698;SDS011;64313;51.018;13.742;2022-10-24T03:32:07;14.57;;;7.40;;
75698;SDS011;64313;51.018;13.742;2022-10-24T03:34:32;13.27;;;7.20;;
75698;SDS011;64313;51.018;13.742;2022-10-24T03:36:57;15.13;;;8.32;;
75698;SDS011;64313;51.018;13.742;2022-10-24T03:39:23;12.15;;;7.32;;
75698;SDS011;64313;51.018;13.742;2022-10-24T03:41:48;15.95;;;9.05;;
75698;SDS011;64313;51.018;13.742;2022-10-24T03:44:14;13.82;;;7.45;;
75698;SDS011;64313;51.018;13.742;2022-10-24T03:46:39;13.95;;;7.80;;
75698;SDS011;64313;51.018;13.742;2022-10-24T03:49:04;15.02;;;8.32;;
75698;SDS011;64313;51.018;13.742;2022-10-24T03:51:30;12.75;;;7.60;;
75698;SDS011;64313;51.018;13.742;2022-10-24T03:53:55;15.68;;;8.88;;
75698;SDS011;64313;51.018;13.742;2022-10-24T03:56:21;14.23;;;8.63;;
75698;SDS011;64313;51.018;13.742;2022-10-24T03:58:46;14.30;;;8.20;;
75698;SDS011;64313;51.018;13.742;2022-10-24T04:01:11;14.85;;;8.85;;
75698;SDS011;64313;51.018;13.742;2022-10-24T04:03:41;15.00;;;7.97;;
75698;SDS011;64313;51.018;13.742;2022-10-24T04:06:08;15.25;;;8.30;;
75698;SDS011;64313;51.018;13.742;2022-10-24T04:08:34;14.45;;;8.73;;
75698;SDS011;64313;51.018;13.742;2022-10-24T04:10:59;16.58;;;8.07;;
75698;SDS011;64313;51.018;13.742;2022-10-24T04:13:24;13.70;;;8.98;;
75698;SDS011;64313;51.018;13.742;2022-10-24T04:15:50;14.32;;;8.43;;
75698;SDS011;64313;51.018;13.742;2022-10-24T04:18:15;14.95;;;8.30;;
75698;SDS011;64313;51.018;13.742;2022-10-24T04:20:40;13.27;;;8.38;;
75698;SDS011;64313;51.018;13.742;2022-10-24T04:23:06;15.50;;;8.18;;
75698;SDS011;64313;51.018;13.742;2022-10-24T04:25:31;13.52;;;8.13;;
75698;SDS011;64313;51.018;13.742;2022-10-24T04:27:57;13.68;;;8.40;;
75698;SDS011;64313;51.018;13.742;2022-10-24T04:30:22;13.60;;;7.75;;
75698;SDS011;64313;51.018;13.742;2022-10-24T04:32:48;13.40;;;8.60;;
75698;SDS011;64313;51.018;13.742;2022-10-24T04:35:13;13.90;;;8.45;;
75698;SDS011;64313;51.018;13.742;2022-10-24T04:37:38;13.77;;;8.13;;
75698;SDS011;64313;51.018;13.742;2022-10-24T04:40:04;12.88;;;8.10;;
75698;SDS011;64313;51.018;13.742;2022-10-24T04:42:30;15.00;;;8.63;;
75698;SDS011;64313;51.018;13.742;2022-10-24T04:44:55;13.07;;;7.60;;
75698;SDS011;64313;51.018;13.742;2022-10-24T04:47:20;12.75;;;7.93;;
75698;SDS011;64313;51.018;13.742;2022-10-24T04:49:46;13.70;;;7.55;;
75698;SDS011;64313;51.018;13.742;2022-10-24T04:52:14;12.45;;;7.07;;
75698;SDS011;64313;51.018;13.742;2022-10-24T04:54:39;13.77;;;7.90;;
75698;SDS011;64313;51.018;13.742;2022-10-24T04:57:04;13.10;;;7.32;;
75698;SDS011;64313;51.018;13.742;2022-10-24T04:59:30;14.48;;;7.93;;
75698;SDS011;64313;51.018;13.742;2022-10-24T05:01:55;12.77;;;7.68;;
75698;SDS011;64313;51.018;13.742;2022-10-24T05:04:20;15.38;;;8.02;;
75698;SDS011;64313;51.018;13.742;2022-10-24T05:06:46;14.25;;;8.07;;
75698;SDS011;64313;51.018;13.742;2022-10-24T05:09:12;11.93;;;7.00;;
75698;SDS011;64313;51.018;13.742;2022-10-24T05:11:38;12.05;;;7.30;;
75698;SDS011;64313;51.018;13.742;2022-10-24T05:14:03;14.00;;;6.72;;
75698;SDS011;64313;51.018;13.742;2022-10-24T05:16:29;12.60;;;6.93;;
75698;SDS011;64313;51.018;13.742;2022-10-24T05:18:54;13.57;;;6.45;;
75698;SDS011;64313;51.018;13.742;2022-10-24T05:21:19;13.40;;;6.90;;
75698;SDS011;64313;51.018;13.742;2022-10-24T05:23:45;12.98;;;7.20;;
75698;SDS011;64313;51.018;13.742;2022-10-24T05:26:10;12.70;;;6.90;;
75698;SDS011;64313;51.018;13.742;2022-10-24T05:28:35;12.73;;;7.15;;
75698;SDS011;64313;51.018;13.742;2022-10-24T05:31:01;15.30;;;6.57;;
75698;SDS011;64313;51.018;13.742;2022-10-24T05:33:26;10.65;;;5.63;;
75698;SDS011;64313;51.018;13.742;2022-10-24T05:35:52;12.75;;;6.72;;
75698;SDS011;64313;51.018;13.742;2022-10-24T05:38:18;11.43;;;6.05;;
75698;SDS011;64313;51.018;13.742;2022-10-24T05:40:43;10.88;;;5.88;;
75698;SDS011;64313;51.018;13.742;2022-10-24T05:43:13;14.27;;;6.75;;
75698;SDS011;64313;51.018;13.742;2022-10-24T05:45:43;11.02;;;6.20;;
75698;SDS011;64313;51.018;13.742;2022-10-24T05:48:08;11.77;;;6.53;;
75698;SDS011;64313;51.018;13.742;2022-10-24T05:50:34;9.77;;;5.57;;
75698;SDS011;64313;51.018;13.742;2022-10-24T05:55:24;12.35;;;6.40;;
75698;SDS011;64313;51.018;13.742;2022-10-24T05:57:50;12.88;;;6.80;;
75698;SDS011;64313;51.018;13.742;2022-10-24T06:00:19;11.63;;;5.90;;
75698;SDS011;64313;51.018;13.742;2022-10-24T06:03:10;11.63;;;6.20;;
75698;SDS011;64313;51.018;13.742;2022-10-24T06:05:43;11.88;;;6.20;;
75698;SDS011;64313;51.018;13.742;2022-10-24T06:08:52;12.13;;;6.18;;
75698;SDS011;64313;51.018;13.742;2022-10-24T06:11:30;10.60;;;6.30;;
75698;SDS011;64313;51.018;13.742;2022-10-24T06:14:20;10.93;;;6.25;;
75698;SDS011;64313;51.018;13.742;2022-10-24T06:16:48;12.45;;;6.47;;
75698;SDS011;64313;51.018;13.742;2022-10-24T06:19:18;13.07;;;6.72;;
75698;SDS011;64313;51.018;13.742;2022-10-24T06:21:54;12.55;;;6.25;;
75698;SDS011;64313;51.018;13.742;2022-10-24T06:28:07;15.60;;;7.00;;
75698;SDS011;64313;51.018;13.742;2022-10-24T06:37:18;14.27;;;6.68;;
75698;SDS011;64313;51.018;13.742;2022-10-24T06:49:47;14.77;;;7.30;;
75698;SDS011;64313;51.018;13.742;2022-10-24T06:55:03;11.70;;;6.78;;
75698;SDS011;64313;51.018;13.742;2022-10-24T06:57:30;13.60;;;6.95;;
75698;SDS011;64313;51.018;13.742;2022-10-24T06:59:56;11.93;;;6.72;;
75698;SDS011;64313;51.018;13.742;2022-10-24T07:02:21;12.40;;;6.88;;
75698;SDS011;64313;51.018;13.742;2022-10-24T07:07:36;13.55;;;7.00;;
75698;SDS011;64313;51.018;13.742;2022-10-24T07:10:01;13.93;;;6.93;;
75698;SDS011;64313;51.018;13.742;2022-10-24T07:12:26;11.93;;;7.00;;
75698;SDS011;64313;51.018;13.742;2022-10-24T07:14:52;12.40;;;6.80;;
75698;SDS011;64313;51.018;13.742;2022-10-24T07:17:24;13.45;;;6.55;;
75698;SDS011;64313;51.018;13.742;2022-10-24T07:19:52;15.43;;;7.03;;
75698;SDS011;64313;51.018;13.742;2022-10-24T07:27:32;12.73;;;6.55;;
75698;SDS011;64313;51.018;13.742;2022-10-24T07:33:20;11.93;;;6.55;;
75698;SDS011;64313;51.018;13.742;2022-10-24T07:35:51;12.88;;;6.65;;
75698;SDS011;64313;51.018;13.742;2022-10-24T07:38:21;14.30;;;6.70;;
75698;SDS011;64313;51.018;13.742;2022-10-24T07:40:47;13.35;;;6.80;;
75698;SDS011;64313;51.018;13.742;2022-10-24T08:01:26;12.25;;;6.25;;
75698;SDS011;64313;51.018;13.742;2022-10-24T08:21:16;14.60;;;5.95;;
75698;SDS011;64313;51.018;13.742;2022-10-24T08:27:01;11.50;;;6.43;;
75698;SDS011;64313;51.018;13.742;2022-10-24T08:29:30;12.05;;;5.35;;
75698;SDS011;64313;51.018;13.742;2022-10-24T08:31:58;12.50;;;5.82;;
75698;SDS011;64313;51.018;13.742;2022-10-24T08:34:24;11.95;;;5.90;;
75698;SDS011;64313;51.018;13.742;2022-10-24T08:37:13;12.43;;;6.07;;
75698;SDS011;64313;51.018;13.742;2022-10-24T08:39:41;11.30;;;5.72;;
75698;SDS011;64313;51.018;13.742;2022-10-24T08:42:09;11.85;;;6.00;;
75698;SDS011;64313;51.018;13.742;2022-10-24T08:44:41;10.93;;;5.80;;
75698;SDS011;64313;51.018;13.742;2022-10-24T08:49:51;10.82;;;6.30;;
75698;SDS011;64313;51.018;13.742;2022-10-24T08:52:25;12.25;;;5.90;;
75698;SDS011;64313;51.018;13.742;2022-10-24T08:54:51;10.32;;;5.40;;
75698;SDS011;64313;51.018;13.742;2022-10-24T08:57:21;12.85;;;5.35;;
75698;SDS011;64313;51.018;13.742;2022-10-24T08:59:51;10.45;;;5.57;;
75698;SDS011;64313;51.018;13.742;2022-10-24T09:02:26;12.10;;;5.45;;
75698;SDS011;64313;51.018;13.742;2022-10-24T09:04:55;11.32;;;5.80;;
75698;SDS011;64313;51.018;13.742;2022-10-24T09:07:22;11.93;;;5.07;;
75698;SDS011;64313;51.018;13.742;2022-10-24T09:09:49;10.23;;;5.40;;
75698;SDS011;64313;51.018;13.742;2022-10-24T09:12:19;10.98;;;5.65;;
75698;SDS011;64313;51.018;13.742;2022-10-24T09:14:46;11.77;;;5.28;;
75698;SDS011;64313;51.018;13.742;2022-10-24T09:17:23;11.90;;;5.45;;
75698;SDS011;64313;51.018;13.742;2022-10-24T09:20:21;9.50;;;5.35;;
75698;SDS011;64313;51.018;13.742;2022-10-24T09:22:49;11.25;;;5.35;;
75698;SDS011;64313;51.018;13.742;2022-10-24T09:25:20;10.02;;;5.22;;
75698;SDS011;64313;51.018;13.742;2022-10-24T09:27:48;9.40;;;5.00;;
75698;SDS011;64313;51.018;13.742;2022-10-24T09:30:16;10.13;;;4.90;;
75698;SDS011;64313;51.018;13.742;2022-10-24T09:32:42;8.98;;;4.80;;
75698;SDS011;64313;51.018;13.742;2022-10-24T09:35:11;11.75;;;5.32;;
75698;SDS011;64313;51.018;13.742;2022-10-24T09:37:45;8.95;;;4.88;;
75698;SDS011;64313;51.018;13.742;2022-10-24T09:40:15;11.50;;;5.70;;
75698;SDS011;64313;51.018;13.742;2022-10-24T09:42:53;9.63;;;5.03;;
75698;SDS011;64313;51.018;13.742;2022-10-24T09:48:20;10.00;;;5.55;;
75698;SDS011;64313;51.018;13.742;2022-10-24T09:50:49;11.00;;;5.53;;
75698;SDS011;64313;51.018;13.742;2022-10-24T09:53:25;9.75;;;5.10;;
75698;SDS011;64313;51.018;13.742;2022-10-24T09:55:57;12.55;;;5.35;;
75698;SDS011;64313;51.018;13.742;2022-10-24T09:58:28;9.77;;;4.90;;
75698;SDS011;64313;51.018;13.742;2022-10-24T10:03:23;11.63;;;6.00;;
75698;SDS011;64313;51.018;13.742;2022-10-24T10:05:51;11.25;;;5.18;;
75698;SDS011;64313;51.018;13.742;2022-10-24T10:08:28;8.65;;;4.70;;
75698;SDS011;64313;51.018;13.742;2022-10-24T10:11:04;11.77;;;5.18;;
75698;SDS011;64313;51.018;13.742;2022-10-24T10:13:45;9.20;;;5.03;;
75698;SDS011;64313;51.018;13.742;2022-10-24T10:16:36;9.38;;;4.93;;
75698;SDS011;64313;51.018;13.742;2022-10-24T10:19:03;10.23;;;4.45;;
75698;SDS011;64313;51.018;13.742;2022-10-24T10:24:25;9.75;;;4.47;;
75698;SDS011;64313;51.018;13.742;2022-10-24T10:26:51;12.40;;;4.50;;
75698;SDS011;64313;51.018;13.742;2022-10-24T10:31:49;10.02;;;4.28;;
75698;SDS011;64313;51.018;13.742;2022-10-24T10:34:19;8.88;;;4.22;;
75698;SDS011;64313;51.018;13.742;2022-10-24T10:42:18;12.15;;;4.82;;
75698;SDS011;64313;51.018;13.742;2022-10-24T10:47:58;11.32;;;3.35;;
75698;SDS011;64313;51.018;13.742;2022-10-24T10:50:34;8.27;;;3.00;;
75698;SDS011;64313;51.018;13.742;2022-10-24T10:55:52;8.07;;;2.70;;
75698;SDS011;64313;51.018;13.742;2022-10-24T11:04:16;11.07;;;1.98;;
75698;SDS011;64313;51.018;13.742;2022-10-24T11:06:51;9.82;;;2.08;;
75698;SDS011;64313;51.018;13.742;2022-10-24T11:09:33;8.48;;;2.28;;
75698;SDS011;64313;51.018;13.742;2022-10-24T11:12:13;5.05;;;2.08;;
75698;SDS011;64313;51.018;13.742;2022-10-24T11:14:43;5.95;;;1.52;;
75698;SDS011;64313;51.018;13.742;2022-10-24T11:19:44;6.20;;;1.55;;
75698;SDS011;64313;51.018;13.742;2022-10-24T11:22:17;6.82;;;1.42;;
75698;SDS011;64313;51.018;13.742;2022-10-24T11:25:05;4.72;;;1.50;;
75698;SDS011;64313;51.018;13.742;2022-10-24T11:27:54;6.47;;;1.85;;
75698;SDS011;64313;51.018;13.742;2022-10-24T11:30:44;4.25;;;1.20;;
75698;SDS011;64313;51.018;13.742;2022-10-24T11:35:51;4.50;;;1.20;;
75698;SDS011;64313;51.018;13.742;2022-10-24T11:38:23;3.40;;;1.10;;
75698;SDS011;64313;51.018;13.742;2022-10-24T11:44:10;3.70;;;0.98;;
75698;SDS011;64313;51.018;13.742;2022-10-24T11:49:16;2.80;;;1.00;;
75698;SDS011;64313;51.018;13.742;2022-10-24T11:51:51;5.90;;;1.20;;
75698;SDS011;64313;51.018;13.742;2022-10-24T11:54:22;3.10;;;1.00;;
75698;SDS011;64313;51.018;13.742;2022-10-24T11:56:55;4.20;;;1.00;;
75698;SDS011;64313;51.018;13.742;2022-10-24T11:59:39;5.05;;;1.20;;
75698;SDS011;64313;51.018;13.742;2022-10-24T12:10:30;3.08;;;0.90;;
75698;SDS011;64313;51.018;13.742;2022-10-24T12:18:38;3.92;;;0.90;;
75698;SDS011;64313;51.018;13.742;2022-10-24T12:21:09;1.40;;;0.50;;
75698;SDS011;64313;51.018;13.742;2022-10-24T12:23:38;2.50;;;0.50;;
75698;SDS011;64313;51.018;13.742;2022-10-24T12:28:38;2.20;;;0.68;;
75698;SDS011;64313;51.018;13.742;2022-10-24T12:33:40;2.03;;;0.70;;
75698;SDS011;64313;51.018;13.742;2022-10-24T12:36:07;2.90;;;0.70;;
75698;SDS011;64313;51.018;13.742;2022-10-24T12:46:56;4.07;;;1.20;;
75698;SDS011;64313;51.018;13.742;2022-10-24T12:49:26;5.50;;;1.77;;
75698;SDS011;64313;51.018;13.742;2022-10-24T12:51:53;4.28;;;1.55;;
75698;SDS011;64313;51.018;13.742;2022-10-24T12:57:25;3.63;;;1.10;;
75698;SDS011;64313;51.018;13.742;2022-10-24T12:59:56;2.38;;;1.00;;
75698;SDS011;64313;51.018;13.742;2022-10-24T13:02:28;2.50;;;0.70;;
75698;SDS011;64313;51.018;13.742;2022-10-24T13:05:15;2.63;;;0.70;;
75698;SDS011;64313;51.018;13.742;2022-10-24T13:19:37;2.25;;;0.50;;
75698;SDS011;64313;51.018;13.742;2022-10-24T13:22:03;2.85;;;0.52;;
75698;SDS011;64313;51.018;13.742;2022-10-24T13:32:41;1.67;;;0.67;;
75698;SDS011;64313;51.018;13.742;2022-10-24T13:34:41;1.85;;;0.70;;
75698;SDS011;64313;51.018;13.742;2022-10-24T13:39:36;1.13;;;0.47;;
75698;SDS011;64313;51.018;13.742;2022-10-24T13:42:17;2.20;;;0.50;;
75698;SDS011;64313;51.018;13.742;2022-10-24T13:45:01;2.35;;;0.50;;
75698;SDS011;64313;51.018;13.742;2022-10-24T13:47:43;1.55;;;0.40;;
75698;SDS011;64313;51.018;13.742;2022-10-24T13:50:14;2.78;;;0.68;;
75698;SDS011;64313;51.018;13.742;2022-10-24T13:52:54;4.72;;;0.63;;
75698;SDS011;64313;51.018;13.742;2022-10-24T14:00:53;2.40;;;0.60;;
75698;SDS011;64313;51.018;13.742;2022-10-24T14:03:27;1.48;;;0.50;;
75698;SDS011;64313;51.018;13.742;2022-10-24T14:05:56;1.88;;;0.50;;
75698;SDS011;64313;51.018;13.742;2022-10-24T14:10:58;1.23;;;0.40;;
75698;SDS011;64313;51.018;13.742;2022-10-24T14:13:27;0.98;;;0.50;;
75698;SDS011;64313;51.018;13.742;2022-10-24T14:15:56;2.78;;;0.60;;
75698;SDS011;64313;51.018;13.742;2022-10-24T14:18:24;1.65;;;0.50;;
75698;SDS011;64313;51.018;13.742;2022-10-24T14:20:57;1.00;;;0.40;;
75698;SDS011;64313;51.018;13.742;2022-10-24T14:23:35;0.98;;;0.40;;
75698;SDS011;64313;51.018;13.742;2022-10-24T14:28:47;2.08;;;0.57;;
75698;SDS011;64313;51.018;13.742;2022-10-24T14:31:20;3.08;;;0.50;;
75698;SDS011;64313;51.018;13.742;2022-10-24T14:33:48;1.38;;;0.50;;
75698;SDS011;64313;51.018;13.742;2022-10-24T14:36:19;2.03;;;0.70;;
75698;SDS011;64313;51.018;13.742;2022-10-24T14:38:48;2.65;;;0.63;;
75698;SDS011;64313;51.018;13.742;2022-10-24T14:41:14;1.90;;;0.63;;
75698;SDS011;64313;51.018;13.742;2022-10-24T14:43:42;1.88;;;0.80;;
75698;SDS011;64313;51.018;13.742;2022-10-24T14:48:38;2.63;;;0.70;;
75698;SDS011;64313;51.018;13.742;2022-10-24T14:51:09;2.25;;;0.60;;
75698;SDS011;64313;51.018;13.742;2022-10-24T14:53:42;2.53;;;0.80;;
75698;SDS011;64313;51.018;13.742;2022-10-24T14:56:21;2.30;;;0.60;;
75698;SDS011;64313;51.018;13.742;2022-10-24T14:58:51;2.00;;;0.60;;
75698;SDS011;64313;51.018;13.742;2022-10-24T15:01:18;1.88;;;0.60;;
75698;SDS011;64313;51.018;13.742;2022-10-24T15:06:28;2.40;;;0.80;;
75698;SDS011;64313;51.018;13.742;2022-10-24T15:09:03;2.33;;;0.68;;
75698;SDS011;64313;51.018;13.742;2022-10-24T15:11:38;2.60;;;0.90;;
75698;SDS011;64313;51.018;13.742;2022-10-24T15:19:43;2.33;;;0.80;;
75698;SDS011;64313;51.018;13.742;2022-10-24T15:22:18;4.05;;;1.13;;
75698;SDS011;64313;51.018;13.742;2022-10-24T15:24:51;2.60;;;0.70;;
75698;SDS011;64313;51.018;13.742;2022-10-24T15:27:20;3.58;;;1.15;;
75698;SDS011;64313;51.018;13.742;2022-10-24T15:29:50;3.08;;;0.95;;
75698;SDS011;64313;51.018;13.742;2022-10-24T15:32:15;2.53;;;0.63;;
75698;SDS011;64313;51.018;13.742;2022-10-24T15:34:40;3.40;;;0.90;;
75698;SDS011;64313;51.018;13.742;2022-10-24T15:37:13;3.27;;;0.93;;
75698;SDS011;64313;51.018;13.742;2022-10-24T15:39:41;2.65;;;0.80;;
75698;SDS011;64313;51.018;13.742;2022-10-24T15:42:07;2.40;;;0.90;;
75698;SDS011;64313;51.018;13.742;2022-10-24T15:44:32;2.88;;;0.93;;
75698;SDS011;64313;51.018;13.742;2022-10-24T15:46:59;3.08;;;0.98;;
75698;SDS011;64313;51.018;13.742;2022-10-24T15:49:25;2.22;;;0.90;;
75698;SDS011;64313;51.018;13.742;2022-10-24T15:51:52;2.97;;;0.80;;
75698;SDS011;64313;51.018;13.742;2022-10-24T15:54:18;3.33;;;1.10;;
75698;SDS011;64313;51.018;13.742;2022-10-24T15:56:45;3.30;;;0.93;;
75698;SDS011;64313;51.018;13.742;2022-10-24T15:59:11;4.00;;;1.30;;
75698;SDS011;64313;51.018;13.742;2022-10-24T16:01:37;3.20;;;1.10;;
75698;SDS011;64313;51.018;13.742;2022-10-24T16:04:08;4.22;;;1.10;;
75698;SDS011;64313;51.018;13.742;2022-10-24T16:06:34;5.55;;;1.23;;
75698;SDS011;64313;51.018;13.742;2022-10-24T16:08:59;4.25;;;1.20;;
75698;SDS011;64313;51.018;13.742;2022-10-24T16:11:25;4.32;;;1.23;;
75698;SDS011;64313;51.018;13.742;2022-10-24T16:13:51;4.32;;;1.15;;
75698;SDS011;64313;51.018;13.742;2022-10-24T16:16:17;3.83;;;1.20;;
75698;SDS011;64313;51.018;13.742;2022-10-24T16:18:42;3.05;;;1.10;;
75698;SDS011;64313;51.018;13.742;2022-10-24T16:21:10;2.58;;;0.95;;
75698;SDS011;64313;51.018;13.742;2022-10-24T16:23:41;4.20;;;1.27;;
75698;SDS011;64313;51.018;13.742;2022-10-24T16:26:06;4.30;;;1.58;;
75698;SDS011;64313;51.018;13.742;2022-10-24T16:28:31;3.57;;;1.17;;
75698;SDS011;64313;51.018;13.742;2022-10-24T16:30:56;3.53;;;1.00;;
75698;SDS011;64313;51.018;13.742;2022-10-24T16:33:22;2.83;;;0.90;;
75698;SDS011;64313;51.018;13.742;2022-10-24T16:35:47;3.83;;;1.20;;
75698;SDS011;64313;51.018;13.742;2022-10-24T16:38:13;4.68;;;0.90;;
75698;SDS011;64313;51.018;13.742;2022-10-24T16:40:39;2.38;;;0.90;;
75698;SDS011;64313;51.018;13.742;2022-10-24T16:43:06;4.80;;;1.38;;
75698;SDS011;64313;51.018;13.742;2022-10-24T16:45:31;4.32;;;1.40;;
75698;SDS011;64313;51.018;13.742;2022-10-24T16:47:57;6.03;;;1.77;;
75698;SDS011;64313;51.018;13.742;2022-10-24T16:50:24;4.18;;;1.63;;
75698;SDS011;64313;51.018;13.742;2022-10-24T16:52:51;4.45;;;1.73;;
75698;SDS011;64313;51.018;13.742;2022-10-24T16:55:18;5.78;;;1.80;;
75698;SDS011;64313;51.018;13.742;2022-10-24T16:57:44;5.57;;;2.00;;
75698;SDS011;64313;51.018;13.742;2022-10-24T17:00:09;4.85;;;1.80;;
75698;SDS011;64313;51.018;13.742;2022-10-24T17:02:39;5.13;;;2.05;;
75698;SDS011;64313;51.018;13.742;2022-10-24T17:05:06;5.13;;;1.95;;
75698;SDS011;64313;51.018;13.742;2022-10-24T17:07:31;3.80;;;1.50;;
75698;SDS011;64313;51.018;13.742;2022-10-24T17:09:57;4.63;;;1.40;;
75698;SDS011;64313;51.018;13.742;2022-10-24T17:12:22;4.00;;;1.77;;
75698;SDS011;64313;51.018;13.742;2022-10-24T17:14:48;4.63;;;1.55;;
75698;SDS011;64313;51.018;13.742;2022-10-24T17:17:13;4.60;;;1.52;;
75698;SDS011;64313;51.018;13.742;2022-10-24T17:19:38;4.63;;;1.52;;
75698;SDS011;64313;51.018;13.742;2022-10-24T17:22:05;6.43;;;1.80;;
75698;SDS011;64313;51.018;13.742;2022-10-24T17:24:30;4.82;;;1.85;;
75698;SDS011;64313;51.018;13.742;2022-10-24T17:26:57;4.93;;;2.08;;
75698;SDS011;64313;51.018;13.742;2022-10-24T17:29:24;6.15;;;2.17;;
75698;SDS011;64313;51.018;13.742;2022-10-24T17:31:50;5.38;;;1.90;;
75698;SDS011;64313;51.018;13.742;2022-10-24T17:34:16;6.20;;;1.85;;
75698;SDS011;64313;51.018;13.742;2022-10-24T17:36:41;4.80;;;1.95;;
75698;SDS011;64313;51.018;13.742;2022-10-24T17:39:13;4.38;;;1.70;;
75698;SDS011;64313;51.018;13.742;2022-10-24T17:41:44;5.07;;;1.80;;
75698;SDS011;64313;51.018;13.742;2022-10-24T17:44:11;5.25;;;1.80;;
75698;SDS011;64313;51.018;13.742;2022-10-24T17:46:40;8.55;;;2.00;;
75698;SDS011;64313;51.018;13.742;2022-10-24T17:49:06;6.13;;;2.00;;
75698;SDS011;64313;51.018;13.742;2022-10-24T17:51:34;8.15;;;2.53;;
75698;SDS011;64313;51.018;13.742;2022-10-24T17:54:01;5.78;;;2.35;;
75698;SDS011;64313;51.018;13.742;2022-10-24T17:56:29;5.85;;;2.40;;
75698;SDS011;64313;51.018;13.742;2022-10-24T17:58:55;6.20;;;2.25;;
75698;SDS011;64313;51.018;13.742;2022-10-24T18:01:20;5.37;;;2.17;;
75698;SDS011;64313;51.018;13.742;2022-10-24T18:03:45;8.48;;;2.90;;
75698;SDS011;64313;51.018;13.742;2022-10-24T18:06:10;8.55;;;3.60;;
75698;SDS011;64313;51.018;13.742;2022-10-24T18:08:36;6.97;;;3.67;;
75698;SDS011;64313;51.018;13.742;2022-10-24T18:11:02;7.80;;;3.65;;
75698;SDS011;64313;51.018;13.742;2022-10-24T18:13:29;8.65;;;3.95;;
75698;SDS011;64313;51.018;13.742;2022-10-24T18:15:56;6.53;;;3.30;;
75698;SDS011;64313;51.018;13.742;2022-10-24T18:18:22;10.02;;;3.70;;
75698;SDS011;64313;51.018;13.742;2022-10-24T18:20:47;8.40;;;3.70;;
75698;SDS011;64313;51.018;13.742;2022-10-24T18:23:13;7.82;;;3.78;;
75698;SDS011;64313;51.018;13.742;2022-10-24T18:25:38;8.68;;;4.50;;
75698;SDS011;64313;51.018;13.742;2022-10-24T18:28:04;9.70;;;4.50;;
75698;SDS011;64313;51.018;13.742;2022-10-24T18:30:29;9.43;;;4.05;;
75698;SDS011;64313;51.018;13.742;2022-10-24T18:32:59;7.43;;;3.65;;
75698;SDS011;64313;51.018;13.742;2022-10-24T18:35:24;7.07;;;3.60;;
75698;SDS011;64313;51.018;13.742;2022-10-24T18:37:51;8.63;;;3.45;;
75698;SDS011;64313;51.018;13.742;2022-10-24T18:40:17;5.95;;;2.88;;
75698;SDS011;64313;51.018;13.742;2022-10-24T18:45:18;7.72;;;3.67;;
75698;SDS011;64313;51.018;13.742;2022-10-24T18:47:45;6.53;;;3.13;;